Madison, New Jersey
Current Conditions -  °F | °C
As of 5:45 PM on Wednesday 26 Nov 2014 (Local Time) from KMMU Reporting Station
Haze Haze  
Wind Chill: 28°   Ceiling: 1600
Heat Index: 36°   Visibility: 2.5mi
Dew Point: 34°   Wind: 10mph
Humidity: 93%   Direction: 20°NNE
Pressure: 29.82"   Gusts: 16mph
Location:  40.76°N, 74.41°W
Report Text: KMMU 262245Z 02009G14KT 2 1/2SM BR OVC016 02/01 A2982
Loading
Personal Weather Stations






























Interactive Weather Map New forecast layout! Learn more

10-Day Weather Forecast

Advertisements
Track Severe Weather on mobile